Time;durP1;ratioP1;P1;durP2;ratioP2;P2;SDS_P1;SDS_P2;PMS_P1;PMS_P2;Temp;Humidity;BMP_temperature;BMP_pressure;BME280_temperature;BME280_humidity;BME280_pressure;Samples;Min_cycle;Max_cycle;Signal;HPM_P1;HPM_P2
2023/08/18 00:01:59;;;;;;;6.28;4.93;;;28.60;46.60;;;;;;5066946;28;20037;-74
2023/08/18 00:04:25;;;;;;;10.88;5.10;;;28.70;46.70;;;;;;5055213;28;20072;-74
2023/08/18 00:06:51;;;;;;;7.75;4.35;;;28.70;46.70;;;;;;5052737;28;20057;-74
2023/08/18 00:09:17;;;;;;;6.25;4.03;;;28.60;46.70;;;;;;5052549;28;20071;-74
2023/08/18 00:11:43;;;;;;;7.97;5.07;;;28.80;46.70;;;;;;5049449;28;20496;-75
2023/08/18 00:14:09;;;;;;;6.43;4.82;;;28.70;46.80;;;;;;5071252;28;20111;-74
2023/08/18 00:16:34;;;;;;;13.30;5.18;;;28.60;46.80;;;;;;5071599;28;20123;-75
2023/08/18 00:19:01;;;;;;;6.63;4.82;;;28.60;46.80;;;;;;5038907;28;20037;-74
2023/08/18 00:21:27;;;;;;;10.45;4.72;;;28.70;46.90;;;;;;5032525;28;20029;-74
2023/08/18 00:23:53;;;;;;;6.90;4.63;;;28.60;47.00;;;;;;5066799;28;20036;-74
2023/08/18 00:26:19;;;;;;;10.50;4.10;;;28.50;47.00;;;;;;5041337;28;20044;-74
2023/08/18 00:28:44;;;;;;;7.75;5.22;;;28.60;47.10;;;;;;5068321;28;20044;-74
2023/08/18 00:31:11;;;;;;;10.32;4.43;;;28.50;47.20;;;;;;5049567;28;20073;-74
2023/08/18 00:33:37;;;;;;;7.90;4.60;;;28.50;47.20;;;;;;5042843;28;20057;-74
2023/08/18 00:36:03;;;;;;;14.25;4.47;;;28.50;47.20;;;;;;5071642;28;20541;-73
2023/08/18 00:38:29;;;;;;;5.40;4.13;;;28.60;47.20;;;;;;5070884;28;20492;-74
2023/08/18 00:40:55;;;;;;;6.07;3.90;;;28.50;47.30;;;;;;5040849;28;20033;-74
2023/08/18 00:43:22;;;;;;;4.97;3.67;;;28.70;47.30;;;;;;5065394;28;20499;-74
2023/08/18 00:45:49;;;;;;;4.70;4.05;;;28.60;47.40;;;;;;5072158;28;20024;-74
2023/08/18 00:48:16;;;;;;;5.30;3.63;;;28.60;47.40;;;;;;5062119;28;20051;-74
2023/08/18 00:50:44;;;;;;;4.63;4.18;;;28.60;47.40;;;;;;5035606;28;20040;-74
2023/08/18 00:53:10;;;;;;;4.45;3.83;;;28.70;47.50;;;;;;5067087;28;20064;-74
2023/08/18 00:55:37;;;;;;;10.50;4.57;;;28.60;47.50;;;;;;5071996;28;20043;-74
2023/08/18 00:58:03;;;;;;;6.95;4.03;;;28.60;47.60;;;;;;5051307;28;20029;-74
2023/08/18 01:00:30;;;;;;;8.38;5.13;;;28.60;47.60;;;;;;5070295;28;20052;-74
2023/08/18 01:02:57;;;;;;;9.52;4.95;;;28.70;47.60;;;;;;5058290;28;20116;-74
2023/08/18 01:05:24;;;;;;;7.80;4.57;;;28.70;47.60;;;;;;5030761;28;20091;-74
2023/08/18 01:07:50;;;;;;;5.43;4.63;;;28.70;47.60;;;;;;5047047;28;20052;-74
2023/08/18 01:10:16;;;;;;;5.10;4.53;;;28.60;47.60;;;;;;5031545;28;20543;-74
2023/08/18 01:13:00;;;;;;;5.43;4.20;;;28.70;47.60;;;;;;5075041;28;20033;-74
2023/08/18 01:15:35;;;;;;;11.45;4.63;;;28.50;47.70;;;;;;5071651;28;20495;-74
2023/08/18 01:18:03;;;;;;;4.90;4.40;;;28.60;47.70;;;;;;5042606;28;20029;-74
2023/08/18 01:20:31;;;;;;;7.57;4.50;;;28.50;47.70;;;;;;5030145;28;20038;-74
2023/08/18 01:23:01;;;;;;;7.50;4.40;;;28.50;47.70;;;;;;5060336;28;20039;-74
2023/08/18 01:25:28;;;;;;;8.70;4.38;;;28.60;47.80;;;;;;5068931;28;20020;-74
2023/08/18 01:27:57;;;;;;;9.50;4.88;;;28.60;47.90;;;;;;5070231;28;20059;-74
2023/08/18 01:30:27;;;;;;;6.65;4.85;;;28.50;48.00;;;;;;5071144;28;20036;-74
2023/08/18 01:33:01;;;;;;;9.60;5.28;;;28.50;48.00;;;;;;5053174;28;20086;-74
2023/08/18 01:35:29;;;;;;;8.55;5.07;;;28.60;48.00;;;;;;5065159;28;20040;-74
2023/08/18 01:37:57;;;;;;;9.30;4.70;;;28.60;48.10;;;;;;5068761;28;20124;-74
2023/08/18 01:40:28;;;;;;;11.75;4.55;;;28.60;48.10;;;;;;5071085;28;20360;-74
2023/08/18 01:42:55;;;;;;;7.63;4.47;;;28.60;48.10;;;;;;5066548;28;20036;-74
2023/08/18 01:45:21;;;;;;;11.35;4.85;;;28.40;48.20;;;;;;5047216;28;20033;-74
2023/08/18 01:47:47;;;;;;;10.18;4.88;;;28.50;48.30;;;;;;5032468;28;20430;-74
2023/08/18 01:50:14;;;;;;;7.75;4.90;;;28.60;48.30;;;;;;5034334;28;20029;-74
2023/08/18 01:52:40;;;;;;;8.73;5.38;;;28.60;48.30;;;;;;5051733;28;20405;-74
2023/08/18 01:55:07;;;;;;;7.43;4.68;;;28.70;48.30;;;;;;5069936;28;20107;-74
2023/08/18 01:57:33;;;;;;;6.28;4.13;;;28.60;48.30;;;;;;5067508;28;20064;-74
2023/08/18 01:59:59;;;;;;;5.22;4.55;;;28.60;48.30;;;;;;5066473;28;20036;-74
2023/08/18 02:02:25;;;;;;;5.55;4.32;;;28.60;48.20;;;;;;5062074;28;20082;-74
2023/08/18 02:04:51;;;;;;;5.68;4.43;;;28.50;48.30;;;;;;5029518;28;20397;-74
2023/08/18 02:07:17;;;;;;;8.60;4.25;;;28.50;48.20;;;;;;5063761;28;20033;-74
2023/08/18 02:09:43;;;;;;;5.75;4.53;;;28.50;48.30;;;;;;5069530;28;20044;-74
2023/08/18 02:12:09;;;;;;;7.35;4.53;;;28.50;48.30;;;;;;5062282;28;20037;-73
2023/08/18 02:14:36;;;;;;;5.95;3.95;;;28.50;48.30;;;;;;5063813;28;20036;-74
2023/08/18 02:17:02;;;;;;;6.47;4.55;;;28.50;48.40;;;;;;5061723;28;20040;-74
2023/08/18 02:19:28;;;;;;;5.53;4.63;;;28.50;48.40;;;;;;5029160;28;20034;-74
2023/08/18 02:21:54;;;;;;;7.15;4.68;;;28.50;48.50;;;;;;5036127;28;20159;-74
2023/08/18 02:24:20;;;;;;;12.90;4.88;;;28.50;48.60;;;;;;5049282;28;20032;-74
2023/08/18 02:26:46;;;;;;;6.40;4.53;;;28.40;48.60;;;;;;5070574;28;20040;-74
2023/08/18 02:29:12;;;;;;;7.82;5.03;;;28.60;48.60;;;;;;5070928;28;20061;-74
2023/08/18 02:31:38;;;;;;;6.53;4.85;;;28.60;48.70;;;;;;5067012;28;20499;-74
2023/08/18 02:34:04;;;;;;;7.28;4.68;;;28.50;48.70;;;;;;5057529;28;20037;-74
2023/08/18 02:36:30;;;;;;;15.68;5.60;;;28.60;48.80;;;;;;5069401;28;20495;-74
2023/08/18 02:38:56;;;;;;;9.32;4.45;;;28.50;48.80;;;;;;5069445;28;20042;-74
2023/08/18 02:41:24;;;;;;;10.27;4.63;;;28.50;48.80;;;;;;5069375;28;20021;-74
2023/08/18 02:43:50;;;;;;;9.40;4.90;;;28.50;48.90;;;;;;5065655;28;20035;-74
2023/08/18 02:46:18;;;;;;;9.32;4.35;;;28.50;48.90;;;;;;5066493;28;20474;-74
2023/08/18 02:48:44;;;;;;;10.98;5.00;;;28.40;48.90;;;;;;5046251;28;20049;-74
2023/08/18 02:51:10;;;;;;;8.98;4.90;;;28.60;48.90;;;;;;5070712;28;20036;-74
2023/08/18 02:53:39;;;;;;;6.35;3.88;;;28.60;48.90;;;;;;5065620;28;20097;-74
2023/08/18 02:56:07;;;;;;;7.63;4.22;;;28.50;48.80;;;;;;5069409;28;20040;-74
2023/08/18 02:58:33;;;;;;;6.80;4.15;;;28.40;48.80;;;;;;5065942;28;20056;-74
2023/08/18 03:01:07;;;;;;;6.90;5.05;;;28.40;48.90;;;;;;5066620;28;20123;-74
2023/08/18 03:03:34;;;;;;;7.88;4.90;;;28.50;48.90;;;;;;5049040;28;20064;-74
2023/08/18 03:06:05;;;;;;;10.45;4.95;;;28.40;48.90;;;;;;5034505;28;20026;-74
2023/08/18 03:08:32;;;;;;;8.27;4.47;;;28.50;48.90;;;;;;5050318;28;20083;-74
2023/08/18 03:11:00;;;;;;;7.25;4.72;;;28.50;48.90;;;;;;5057709;28;20044;-74
2023/08/18 03:13:27;;;;;;;10.48;6.13;;;28.40;48.90;;;;;;5061362;28;20036;-74
2023/08/18 03:15:53;;;;;;;8.18;5.28;;;28.40;49.00;;;;;;5055904;28;20045;-74
2023/08/18 03:18:19;;;;;;;10.05;5.22;;;28.40;49.10;;;;;;5029019;28;20037;-74
2023/08/18 03:20:48;;;;;;;8.93;5.05;;;28.60;49.20;;;;;;5047449;28;20049;-74
2023/08/18 03:23:18;;;;;;;7.50;5.22;;;28.50;49.20;;;;;;5060129;28;20075;-74
2023/08/18 03:25:44;;;;;;;4.93;4.40;;;28.40;49.30;;;;;;5067884;28;20082;-74
2023/08/18 03:28:11;;;;;;;8.52;4.65;;;28.40;49.30;;;;;;5051439;28;20047;-74
2023/08/18 03:30:38;;;;;;;13.38;4.90;;;28.60;49.40;;;;;;5054686;28;20041;-74
2023/08/18 03:33:05;;;;;;;8.85;4.53;;;28.50;49.40;;;;;;5037239;28;20073;-74
2023/08/18 03:35:32;;;;;;;5.35;4.55;;;28.50;49.40;;;;;;5061124;28;20037;-74
2023/08/18 03:37:59;;;;;;;5.55;4.75;;;28.50;49.40;;;;;;5047222;28;20033;-74
2023/08/18 03:40:26;;;;;;;4.72;4.28;;;28.50;49.50;;;;;;5035605;28;20099;-74
2023/08/18 03:42:52;;;;;;;8.73;4.57;;;28.40;49.50;;;;;;5033041;28;20034;-74
2023/08/18 03:45:18;;;;;;;7.00;4.72;;;28.40;49.50;;;;;;5067230;28;20098;-74
2023/08/18 03:47:45;;;;;;;8.80;4.65;;;28.40;49.50;;;;;;5048152;28;20505;-74
2023/08/18 03:50:13;;;;;;;7.05;4.78;;;28.50;49.50;;;;;;5052315;28;20059;-74
2023/08/18 03:52:39;;;;;;;8.77;6.18;;;28.40;49.50;;;;;;5033608;28;20073;-74
2023/08/18 03:55:06;;;;;;;8.50;5.70;;;28.40;49.50;;;;;;5062963;28;20142;-74
2023/08/18 03:57:32;;;;;;;9.18;5.13;;;28.60;49.50;;;;;;5071959;28;20075;-74
2023/08/18 03:59:58;;;;;;;8.23;5.30;;;28.40;49.50;;;;;;5071976;28;20463;-74
2023/08/18 04:02:24;;;;;;;10.10;5.15;;;28.40;49.50;;;;;;5065745;28;20100;-74
2023/08/18 04:04:50;;;;;;;9.75;5.32;;;28.50;49.40;;;;;;5045919;28;20032;-74
2023/08/18 04:07:17;;;;;;;9.30;4.70;;;28.40;49.40;;;;;;5072688;28;20036;-74
2023/08/18 04:09:43;;;;;;;7.15;4.38;;;28.50;49.40;;;;;;5071574;28;20037;-74
2023/08/18 04:12:08;;;;;;;6.65;4.90;;;28.40;49.40;;;;;;5070846;28;20051;-73
2023/08/18 04:14:34;;;;;;;7.53;4.25;;;28.40;49.40;;;;;;5068032;28;20107;-74
2023/08/18 04:17:02;;;;;;;7.30;5.30;;;28.40;49.60;;;;;;5065266;28;20048;-74
2023/08/18 04:19:29;;;;;;;8.95;5.10;;;28.50;49.60;;;;;;5081301;28;20028;-74
2023/08/18 04:21:55;;;;;;;10.85;5.63;;;28.40;49.70;;;;;;5072869;28;20035;-74
2023/08/18 04:24:21;;;;;;;9.43;5.35;;;28.40;49.70;;;;;;5067961;28;20048;-74
2023/08/18 04:26:47;;;;;;;10.55;4.82;;;28.50;49.70;;;;;;5072866;28;20150;-74
2023/08/18 04:29:13;;;;;;;7.00;5.20;;;28.40;49.80;;;;;;5067253;28;20460;-74
2023/08/18 04:31:39;;;;;;;9.40;4.30;;;28.40;49.80;;;;;;5049446;28;20084;-74
2023/08/18 04:34:12;;;;;;;8.02;5.63;;;28.40;49.80;;;;;;5037971;28;20049;-74
2023/08/18 04:36:38;;;;;;;8.38;5.38;;;28.50;49.80;;;;;;5064441;28;20423;-74
2023/08/18 04:39:05;;;;;;;9.77;5.68;;;28.50;49.90;;;;;;5051223;28;20055;-74
2023/08/18 04:41:32;;;;;;;8.40;5.68;;;28.40;49.90;;;;;;5051447;28;20086;-74
2023/08/18 04:43:58;;;;;;;9.23;6.15;;;28.50;49.90;;;;;;5049397;28;20033;-74
2023/08/18 04:46:26;;;;;;;6.32;5.63;;;28.50;49.80;;;;;;5048551;28;20048;-74
2023/08/18 04:48:57;;;;;;;10.07;5.40;;;28.50;49.90;;;;;;5047350;28;20029;-74
2023/08/18 04:51:24;;;;;;;11.05;5.80;;;28.50;49.90;;;;;;5055091;28;20036;-74
2023/08/18 04:53:50;;;;;;;11.48;5.35;;;28.40;49.80;;;;;;5061426;28;20029;-74
2023/08/18 04:56:16;;;;;;;7.97;5.85;;;28.40;49.90;;;;;;5065935;28;20050;-74
2023/08/18 04:58:42;;;;;;;6.18;4.65;;;28.40;49.90;;;;;;5067739;28;20111;-74
2023/08/18 05:01:08;;;;;;;9.40;5.90;;;28.50;49.90;;;;;;5044746;28;20544;-74
2023/08/18 05:03:34;;;;;;;9.27;5.68;;;28.30;49.90;;;;;;5030725;28;20115;-74
2023/08/18 05:06:03;;;;;;;12.15;6.47;;;28.50;49.90;;;;;;5066018;28;20079;-74
2023/08/18 05:08:31;;;;;;;13.27;5.70;;;28.50;49.90;;;;;;5048246;28;20408;-74
2023/08/18 05:11:02;;;;;;;10.13;5.97;;;28.40;49.80;;;;;;5035450;28;20044;-74
2023/08/18 05:13:28;;;;;;;8.27;5.93;;;28.40;49.90;;;;;;5066633;28;20045;-74
2023/08/18 05:15:54;;;;;;;11.80;6.05;;;28.30;49.90;;;;;;5040913;28;20033;-74
2023/08/18 05:18:21;;;;;;;10.80;5.32;;;28.30;50.00;;;;;;5067960;28;20052;-74
2023/08/18 05:20:47;;;;;;;10.63;5.70;;;28.40;50.10;;;;;;5067800;28;20491;-74
2023/08/18 05:23:16;;;;;;;8.13;4.93;;;28.40;50.10;;;;;;5071501;28;20411;-74
2023/08/18 05:25:47;;;;;;;14.90;6.07;;;28.20;50.20;;;;;;5058787;28;20029;-74
2023/08/18 05:28:16;;;;;;;6.23;4.97;;;28.20;50.30;;;;;;5047923;28;20055;-74
2023/08/18 05:30:46;;;;;;;8.48;5.63;;;28.30;50.30;;;;;;5050205;28;20489;-74
2023/08/18 05:33:12;;;;;;;14.52;6.00;;;28.30;50.40;;;;;;5037590;28;20052;-74
2023/08/18 05:35:38;;;;;;;16.60;6.13;;;28.20;50.50;;;;;;5031867;28;20039;-74
2023/08/18 05:38:10;;;;;;;10.93;5.78;;;28.20;50.50;;;;;;5014745;28;20088;-74
2023/08/18 05:40:46;;;;;;;6.45;5.75;;;28.10;50.50;;;;;;5046311;28;20522;-74
2023/08/18 05:43:14;;;;;;;6.65;4.93;;;28.30;50.40;;;;;;5055369;28;20057;-74
2023/08/18 05:45:40;;;;;;;13.48;7.22;;;28.30;50.40;;;;;;5030349;28;20519;-74
2023/08/18 05:48:06;;;;;;;9.32;6.72;;;28.20;50.40;;;;;;5045078;28;20141;-74
2023/08/18 05:50:33;;;;;;;6.75;5.13;;;28.40;50.40;;;;;;5047910;28;20081;-74
2023/08/18 05:53:01;;;;;;;6.78;5.80;;;28.40;50.50;;;;;;5048165;28;20072;-74
2023/08/18 05:55:30;;;;;;;3.25;2.95;;;28.30;50.50;;;;;;5048058;28;20041;-74
2023/08/18 05:58:01;;;;;;;0.95;0.95;;;28.30;50.50;;;;;;5034227;28;20036;-74
2023/08/18 06:00:30;;;;;;;0.70;0.70;;;28.30;50.50;;;;;;5054774;28;20207;-73
2023/08/18 06:02:56;;;;;;;1.80;1.70;;;28.30;50.40;;;;;;5048581;28;20412;-76
2023/08/18 06:05:25;;;;;;;3.35;2.15;;;28.30;51.70;;;;;;5078299;28;20051;-78
2023/08/18 06:07:51;;;;;;;3.03;2.47;;;28.40;51.50;;;;;;5071701;28;20173;-72
2023/08/18 06:10:17;;;;;;;5.13;3.15;;;28.50;51.50;;;;;;5060218;28;20545;-74
2023/08/18 06:12:43;;;;;;;3.58;3.08;;;28.50;51.90;;;;;;5067056;28;20066;-75
2023/08/18 06:15:10;;;;;;;7.68;3.70;;;28.50;52.90;;;;;;5061394;28;20041;-75
2023/08/18 06:17:36;;;;;;;4.13;3.72;;;28.60;53.20;;;;;;5048499;28;20124;-75
2023/08/18 06:20:02;;;;;;;9.40;4.75;;;28.60;53.50;;;;;;5048264;28;20492;-74
2023/08/18 06:22:30;;;;;;;7.15;5.15;;;28.60;52.80;;;;;;5032772;28;20531;-74
2023/08/18 06:24:56;;;;;;;7.68;4.50;;;28.60;53.40;;;;;;5052481;28;20171;-72
2023/08/18 06:27:22;;;;;;;7.20;5.80;;;28.80;53.70;;;;;;5058677;28;20123;-70
2023/08/18 06:29:48;;;;;;;13.48;5.32;;;28.80;56.60;;;;;;5063392;28;20034;-67
2023/08/18 06:32:15;;;;;;;7.40;4.70;;;28.90;57.70;;;;;;5065793;28;20096;-76
2023/08/18 06:34:41;;;;;;;7.70;5.38;;;28.90;57.70;;;;;;5060199;28;20127;-72
2023/08/18 06:37:07;;;;;;;7.70;4.75;;;29.00;58.70;;;;;;5067606;28;20539;-76
2023/08/18 06:39:34;;;;;;;7.78;4.47;;;29.10;59.30;;;;;;5064846;28;20033;-74
2023/08/18 06:42:00;;;;;;;6.88;5.75;;;29.00;57.60;;;;;;5035543;28;20472;-74
2023/08/18 06:44:26;;;;;;;6.40;5.10;;;29.20;55.90;;;;;;5062456;28;20400;-77
2023/08/18 06:46:52;;;;;;;6.10;5.18;;;29.10;54.90;;;;;;5035625;28;20064;-76
2023/08/18 06:49:18;;;;;;;6.03;5.00;;;29.30;55.30;;;;;;5045865;28;20072;-73
2023/08/18 06:51:44;;;;;;;9.25;5.38;;;29.10;54.10;;;;;;5032903;28;20049;-74
2023/08/18 06:54:10;;;;;;;13.05;5.32;;;29.10;53.80;;;;;;5048216;28;20111;-75
2023/08/18 06:56:36;;;;;;;10.68;4.88;;;29.10;53.40;;;;;;5061369;28;20480;-75
2023/08/18 06:59:03;;;;;;;5.03;4.32;;;29.10;53.20;;;;;;5070433;28;20041;-76
2023/08/18 07:01:30;;;;;;;7.05;5.00;;;29.20;53.10;;;;;;5041512;28;20109;-75
2023/08/18 07:03:56;;;;;;;8.10;4.63;;;29.20;53.00;;;;;;5032695;28;20076;-75
2023/08/18 07:06:22;;;;;;;5.30;4.80;;;29.20;53.00;;;;;;5065365;28;20128;-76
2023/08/18 07:08:48;;;;;;;6.15;4.47;;;29.40;52.90;;;;;;5052340;28;20090;-74
2023/08/18 07:11:14;;;;;;;6.65;4.68;;;29.20;52.60;;;;;;5064566;28;20043;-74
2023/08/18 07:13:40;;;;;;;5.00;4.60;;;29.30;52.50;;;;;;5052971;28;20637;-75
2023/08/18 07:16:06;;;;;;;7.63;4.47;;;29.50;52.00;;;;;;5047263;28;20036;-75
2023/08/18 07:18:32;;;;;;;5.78;4.63;;;29.40;51.50;;;;;;5049133;28;20552;-76
2023/08/18 07:20:59;;;;;;;5.43;4.45;;;29.40;51.10;;;;;;5062754;28;20073;-76
2023/08/18 07:23:25;;;;;;;7.60;5.15;;;29.30;50.60;;;;;;5053164;28;20537;-76
2023/08/18 07:25:51;;;;;;;5.35;4.43;;;29.30;50.30;;;;;;5072968;28;20033;-75
2023/08/18 07:28:17;;;;;;;4.25;3.90;;;29.40;49.90;;;;;;5066925;28;20078;-76
2023/08/18 07:30:43;;;;;;;8.88;4.70;;;29.20;49.60;;;;;;5045927;28;20029;-80
2023/08/18 07:33:09;;;;;;;4.05;3.55;;;29.30;49.10;;;;;;5049696;28;20033;-76
2023/08/18 07:35:35;;;;;;;10.15;5.32;;;29.40;48.80;;;;;;5050224;28;20025;-75
2023/08/18 07:38:02;;;;;;;5.35;3.92;;;29.30;48.60;;;;;;5048269;28;20068;-76
2023/08/18 07:40:28;;;;;;;7.82;4.72;;;29.20;48.20;;;;;;5059914;28;20169;-73
2023/08/18 07:42:55;;;;;;;8.07;4.15;;;29.30;48.00;;;;;;5051794;28;20029;-75
2023/08/18 07:45:21;;;;;;;6.63;4.28;;;29.40;47.90;;;;;;5056676;28;20496;-74
2023/08/18 07:47:47;;;;;;;8.60;4.32;;;29.30;47.80;;;;;;5050711;28;20041;-73
2023/08/18 07:50:14;;;;;;;4.70;4.22;;;29.30;47.60;;;;;;5050201;28;20036;-77
2023/08/18 07:52:41;;;;;;;6.45;4.07;;;29.30;47.50;;;;;;5069462;28;20043;-75
2023/08/18 07:55:08;;;;;;;8.68;4.40;;;29.30;47.60;;;;;;5072167;28;20494;-75
2023/08/18 07:57:35;;;;;;;4.47;3.90;;;29.40;47.80;;;;;;5073244;28;20392;-76
2023/08/18 08:00:16;;;;;;;5.78;4.30;;;29.20;47.60;;;;;;5063556;28;20412;-75
2023/08/18 08:02:44;;;;;;;6.00;3.85;;;29.20;47.10;;;;;;5058018;28;20408;-75
2023/08/18 08:05:10;;;;;;;4.78;3.35;;;29.30;46.60;;;;;;5059115;28;20036;-75
2023/08/18 08:07:36;;;;;;;4.95;4.20;;;29.30;46.10;;;;;;5070747;28;20125;-75
2023/08/18 08:10:06;;;;;;;6.50;4.38;;;29.30;45.80;;;;;;5059821;28;20472;-75
2023/08/18 08:12:34;;;;;;;4.90;4.40;;;29.30;45.30;;;;;;5066797;28;20035;-75
2023/08/18 08:15:03;;;;;;;5.68;4.03;;;29.30;45.00;;;;;;5045420;28;20033;-75
2023/08/18 08:17:30;;;;;;;6.65;3.97;;;29.30;44.80;;;;;;5048140;28;20029;-75
2023/08/18 08:19:57;;;;;;;6.50;3.88;;;29.30;44.50;;;;;;5037479;28;20040;-75
2023/08/18 08:22:23;;;;;;;3.70;3.40;;;29.30;44.30;;;;;;5072617;28;20040;-75
2023/08/18 08:24:50;;;;;;;5.43;3.88;;;29.30;44.10;;;;;;5067950;28;20043;-75
2023/08/18 08:27:21;;;;;;;4.57;3.47;;;29.30;43.90;;;;;;5072464;28;20033;-75
2023/08/18 08:29:47;;;;;;;4.10;3.13;;;29.40;43.60;;;;;;5066542;28;20029;-75
2023/08/18 08:32:13;;;;;;;7.95;3.53;;;29.30;43.40;;;;;;5032337;28;20064;-75
2023/08/18 08:34:42;;;;;;;4.20;3.80;;;29.30;43.30;;;;;;5032911;28;20049;-75
2023/08/18 08:37:08;;;;;;;3.90;3.50;;;29.20;43.10;;;;;;5069651;28;20040;-75
2023/08/18 08:39:34;;;;;;;4.85;3.53;;;29.10;43.00;;;;;;5072753;28;20031;-75
2023/08/18 08:42:00;;;;;;;6.10;3.88;;;29.20;43.10;;;;;;5071754;28;20025;-74
2023/08/18 08:44:26;;;;;;;3.58;3.28;;;29.10;43.20;;;;;;5046219;28;20475;-75
2023/08/18 08:46:53;;;;;;;3.70;3.40;;;29.20;43.30;;;;;;5062136;28;20483;-76
2023/08/18 08:49:21;;;;;;;4.63;3.53;;;29.10;43.10;;;;;;5071882;28;20044;-75
2023/08/18 08:51:49;;;;;;;6.38;3.60;;;29.10;43.00;;;;;;5065551;28;20059;-75
2023/08/18 08:54:18;;;;;;;4.07;3.58;;;29.00;42.90;;;;;;5072080;28;20031;-75
2023/08/18 08:56:47;;;;;;;4.18;3.15;;;29.00;42.70;;;;;;5072260;28;20040;-75
2023/08/18 08:59:16;;;;;;;3.45;3.15;;;29.00;42.60;;;;;;5063600;28;20098;-75
2023/08/18 09:01:42;;;;;;;5.63;3.60;;;29.10;42.50;;;;;;5062103;28;20116;-75
2023/08/18 09:04:08;;;;;;;6.82;4.25;;;29.00;42.20;;;;;;5066104;28;20051;-74
2023/08/18 09:06:35;;;;;;;4.07;3.63;;;28.90;41.30;;;;;;5061906;28;20140;-74
2023/08/18 09:09:02;;;;;;;4.35;3.95;;;28.90;41.20;;;;;;5063340;28;20037;-74
2023/08/18 09:11:47;;;;;;;3.60;2.75;;;28.90;41.10;;;;;;5029140;28;20136;-75
2023/08/18 09:14:14;;;;;;;6.85;4.43;;;28.90;41.00;;;;;;5025285;28;20041;-75
2023/08/18 09:16:44;;;;;;;4.30;3.88;;;29.10;41.40;;;;;;5026117;28;20037;-75
2023/08/18 09:19:13;;;;;;;3.97;3.63;;;28.90;40.70;;;;;;4979981;28;20391;-75
2023/08/18 09:21:40;;;;;;;4.78;3.53;;;28.90;40.60;;;;;;5015491;28;20108;-76
2023/08/18 09:24:07;;;;;;;7.05;3.72;;;29.00;41.10;;;;;;5009521;28;20053;-76
2023/08/18 09:26:33;;;;;;;4.05;3.10;;;29.00;41.00;;;;;;5011421;28;20101;-75
2023/08/18 09:29:03;;;;;;;4.25;3.17;;;29.00;40.90;;;;;;5017667;28;20088;-75
2023/08/18 09:31:29;;;;;;;7.93;3.90;;;28.80;40.20;;;;;;5021298;28;20468;-75
2023/08/18 09:33:56;;;;;;;4.80;3.38;;;28.80;40.20;;;;;;5009241;28;20038;-74
2023/08/18 09:36:22;;;;;;;4.53;3.55;;;28.80;40.00;;;;;;5009030;28;20403;-74
2023/08/18 09:38:48;;;;;;;8.00;4.40;;;29.00;40.60;;;;;;5008729;28;20045;-73
2023/08/18 09:41:14;;;;;;;4.10;2.92;;;29.00;40.60;;;;;;5008266;28;20045;-72
2023/08/18 09:43:43;;;;;;;4.20;3.08;;;28.80;40.20;;;;;;5023016;28;20092;-72
2023/08/18 09:46:13;;;;;;;5.53;3.30;;;28.80;40.10;;;;;;5013694;28;20141;-77
2023/08/18 09:48:46;;;;;;;3.75;3.20;;;28.80;40.60;;;;;;5034038;28;20056;-73
2023/08/18 09:51:14;;;;;;;3.97;3.53;;;28.60;40.70;;;;;;5049971;28;20029;-74
2023/08/18 09:53:53;;;;;;;4.97;3.80;;;28.60;41.80;;;;;;5060625;28;20051;-74
2023/08/18 09:56:27;;;;;;;5.10;4.00;;;28.60;42.50;;;;;;5038194;28;20034;-76
2023/08/18 09:59:06;;;;;;;5.55;4.00;;;28.80;43.90;;;;;;5054218;28;20029;-74
2023/08/18 10:01:35;;;;;;;7.20;4.10;;;28.60;44.60;;;;;;5067589;28;20101;-75
2023/08/18 10:04:02;;;;;;;6.65;3.90;;;28.70;47.10;;;;;;5069402;28;20029;-74
2023/08/18 10:06:30;;;;;;;5.03;3.80;;;28.60;48.30;;;;;;5062673;28;20071;-75
2023/08/18 10:08:58;;;;;;;5.57;3.65;;;28.60;47.40;;;;;;5053958;28;20272;-76
2023/08/18 10:11:24;;;;;;;5.45;3.45;;;28.50;47.20;;;;;;5051779;28;20069;-77
2023/08/18 10:13:51;;;;;;;10.05;6.07;;;28.80;48.70;;;;;;5052782;28;20064;-76
2023/08/18 10:16:19;;;;;;;5.30;3.83;;;28.90;50.00;;;;;;5043840;28;20404;-77
2023/08/18 10:18:55;;;;;;;19.00;4.78;;;29.10;49.30;;;;;;5050183;28;20041;-76
2023/08/18 10:21:26;;;;;;;7.45;3.90;;;29.10;48.30;;;;;;5049962;28;20029;-74
2023/08/18 10:23:53;;;;;;;5.97;3.92;;;29.20;47.30;;;;;;5070853;28;20107;-78
2023/08/18 10:26:19;;;;;;;8.45;4.50;;;29.20;47.30;;;;;;5058702;28;20032;-74
2023/08/18 10:28:45;;;;;;;4.15;3.75;;;29.20;47.00;;;;;;5042613;28;20123;-75
2023/08/18 10:31:14;;;;;;;4.47;3.67;;;29.30;46.50;;;;;;5045005;28;20061;-77
2023/08/18 10:34:01;;;;;;;6.05;3.50;;;29.10;46.20;;;;;;5034826;28;20117;-75
2023/08/18 10:36:29;;;;;;;12.32;4.30;;;29.10;46.70;;;;;;5049442;28;20037;-77
2023/08/18 10:38:55;;;;;;;4.03;3.53;;;29.40;48.10;;;;;;5042797;28;20061;-78
2023/08/18 10:41:25;;;;;;;4.03;3.63;;;29.40;47.10;;;;;;5052548;28;20064;-81
2023/08/18 10:43:55;;;;;;;3.72;3.40;;;29.40;46.50;;;;;;5049390;28;20395;-76
2023/08/18 10:46:33;;;;;;;5.43;4.03;;;29.40;45.90;;;;;;5055601;28;20048;-79
2023/08/18 10:49:00;;;;;;;4.25;3.55;;;29.40;45.30;;;;;;5074331;28;20048;-76
2023/08/18 10:51:27;;;;;;;6.07;3.80;;;29.30;45.30;;;;;;5066633;28;20039;-79
2023/08/18 10:53:53;;;;;;;4.15;3.75;;;29.40;45.10;;;;;;5035124;28;20029;-78
2023/08/18 10:56:19;;;;;;;4.22;3.10;;;29.40;45.20;;;;;;5048673;28;20034;-74
2023/08/18 10:58:45;;;;;;;3.47;2.92;;;29.30;44.60;;;;;;5047420;28;20051;-76
2023/08/18 11:01:12;;;;;;;5.53;3.53;;;29.40;44.20;;;;;;5061613;28;20112;-75
2023/08/18 11:03:41;;;;;;;4.80;3.05;;;29.40;44.40;;;;;;5051488;28;20049;-76
2023/08/18 11:06:07;;;;;;;8.45;4.25;;;29.40;44.40;;;;;;5035206;28;20108;-76
2023/08/18 11:08:34;;;;;;;5.20;4.00;;;29.40;44.50;;;;;;5038498;28;20038;-76
2023/08/18 11:11:01;;;;;;;5.93;4.05;;;29.50;45.10;;;;;;5042250;28;20555;-75
2023/08/18 11:13:28;;;;;;;4.10;3.63;;;29.40;44.90;;;;;;5027564;28;20037;-75
2023/08/18 11:15:56;;;;;;;3.80;3.50;;;29.50;44.80;;;;;;5033721;28;20156;-76
2023/08/18 11:18:23;;;;;;;3.45;3.15;;;29.50;44.60;;;;;;5051428;28;20772;-76
2023/08/18 11:20:51;;;;;;;3.50;3.17;;;29.50;44.30;;;;;;5019715;28;20485;-74
2023/08/18 11:23:20;;;;;;;4.13;3.72;;;29.60;43.90;;;;;;5024728;28;20456;-75
2023/08/18 11:25:46;;;;;;;5.25;3.38;;;29.50;43.40;;;;;;5042038;28;20041;-76
2023/08/18 11:28:13;;;;;;;5.60;3.53;;;29.40;43.20;;;;;;5009335;28;20071;-76
2023/08/18 11:30:39;;;;;;;5.55;3.97;;;29.40;42.90;;;;;;5044160;28;20477;-76
2023/08/18 11:33:05;;;;;;;3.42;2.92;;;29.40;42.70;;;;;;5030964;28;20038;-76
2023/08/18 11:35:32;;;;;;;3.88;3.47;;;29.60;42.50;;;;;;5048298;28;20609;-77
2023/08/18 11:38:00;;;;;;;3.03;2.72;;;29.40;42.20;;;;;;5049035;28;20037;-76
2023/08/18 11:40:26;;;;;;;3.20;2.90;;;29.40;42.00;;;;;;5051596;28;20045;-75
2023/08/18 11:42:53;;;;;;;4.13;2.80;;;29.40;41.80;;;;;;5051062;28;20455;-75
2023/08/18 11:45:22;;;;;;;4.13;3.20;;;29.40;41.70;;;;;;5054991;28;20025;-77
2023/08/18 11:48:03;;;;;;;3.78;3.40;;;29.50;41.60;;;;;;5071512;28;20052;-77
2023/08/18 11:50:39;;;;;;;5.20;3.67;;;29.50;41.30;;;;;;5073909;28;20089;-77
2023/08/18 11:53:07;;;;;;;3.03;2.58;;;29.50;41.20;;;;;;5069815;28;20036;-76
2023/08/18 11:55:41;;;;;;;3.20;2.90;;;29.50;41.10;;;;;;5073342;28;20380;-77
2023/08/18 11:58:11;;;;;;;2.53;2.33;;;29.40;40.90;;;;;;5049943;28;20123;-77
2023/08/18 12:00:39;;;;;;;3.15;2.55;;;29.60;40.80;;;;;;5042358;28;20473;-78
2023/08/18 12:03:18;;;;;;;3.53;2.65;;;29.40;40.80;;;;;;5054047;28;20020;-78
2023/08/18 12:05:44;;;;;;;4.13;3.10;;;29.40;40.70;;;;;;5047594;28;20112;-75
2023/08/18 12:08:10;;;;;;;3.05;2.65;;;29.50;40.70;;;;;;5056203;28;20158;-74
2023/08/18 12:10:37;;;;;;;3.83;2.55;;;29.40;40.80;;;;;;5071386;28;20522;-76
2023/08/18 12:13:03;;;;;;;2.78;2.58;;;29.40;41.00;;;;;;5060590;28;20051;-74
2023/08/18 12:15:29;;;;;;;3.28;2.97;;;29.30;41.10;;;;;;5057772;28;20075;-75
2023/08/18 12:17:56;;;;;;;3.35;3.05;;;29.40;41.30;;;;;;5068028;28;20051;-78
2023/08/18 12:20:24;;;;;;;4.20;2.80;;;29.40;41.40;;;;;;5068341;28;20095;-72
2023/08/18 12:22:51;;;;;;;3.63;2.05;;;29.30;41.50;;;;;;5068643;28;20029;-74
2023/08/18 12:25:18;;;;;;;2.38;2.17;;;29.30;41.70;;;;;;5067174;28;20064;-76
2023/08/18 12:27:47;;;;;;;2.38;2.20;;;29.40;41.90;;;;;;5046539;28;20442;-79
2023/08/18 12:30:15;;;;;;;1.95;1.80;;;29.40;42.20;;;;;;5046577;28;20108;-79
2023/08/18 12:32:43;;;;;;;2.63;2.42;;;29.40;42.40;;;;;;5087764;28;20037;-80
2023/08/18 12:35:10;;;;;;;2.13;1.92;;;29.30;42.60;;;;;;5064633;28;20028;-80
2023/08/18 12:37:37;;;;;;;2.33;2.13;;;29.30;42.70;;;;;;5055898;28;20033;-80
2023/08/18 12:40:08;;;;;;;2.50;2.08;;;29.50;42.90;;;;;;5069255;28;20071;-79
2023/08/18 12:42:52;;;;;;;2.00;1.90;;;29.40;43.00;;;;;;5019346;28;20041;-76
2023/08/18 12:45:20;;;;;;;1.73;1.58;;;29.40;43.10;;;;;;5046033;28;20127;-75
2023/08/18 12:47:46;;;;;;;2.00;1.90;;;29.40;43.20;;;;;;5028694;28;20057;-76